Time;durP1;ratioP1;P1;durP2;ratioP2;P2;SDS_P1;SDS_P2;PMS_P1;PMS_P2;Temp;Humidity;BMP_temperature;BMP_pressure;BME280_temperature;BME280_humidity;BME280_pressure;Samples;Min_cycle;Max_cycle;Signal;HPM_P1;HPM_P2
2023/06/24 00:01:59;;;;;;;11.90;8.98;;;;;;;20.37;100.00;-18574.63;5073451;28;20060;-83
2023/06/24 00:04:25;;;;;;;11.73;9.32;;;;;;;20.22;100.00;-18570.81;5076573;28;20040;-82
2023/06/24 00:06:52;;;;;;;11.70;9.45;;;;;;;20.24;100.00;-18571.22;5067962;28;20094;-82
2023/06/24 00:09:20;;;;;;;14.73;9.88;;;;;;;19.76;100.00;-18558.41;5075972;28;20579;-84
2023/06/24 00:11:46;;;;;;;12.88;9.27;;;;;;;19.82;100.00;-18560.06;5063851;28;20274;-87
2023/06/24 00:14:11;;;;;;;12.43;9.40;;;;;;;19.91;100.00;-18562.50;5061512;28;20901;-86
2023/06/24 00:16:36;;;;;;;15.35;9.50;;;;;;;19.88;100.00;-18561.69;5064628;28;20037;-85
2023/06/24 00:19:02;;;;;;;12.32;9.65;;;;;;;19.81;100.00;-18559.78;5058241;28;20041;-85
2023/06/24 00:21:29;;;;;;;12.07;9.88;;;;;;;19.63;100.00;-18554.88;5069469;28;20039;-84
2023/06/24 00:23:57;;;;;;;13.23;9.93;;;;;;;19.62;100.00;-18554.75;5061011;28;20095;-82
2023/06/24 00:26:23;;;;;;;12.50;9.68;;;;;;;19.58;100.00;-18553.78;5066561;28;20182;-86
2023/06/24 00:28:49;;;;;;;11.63;9.45;;;;;;;19.64;100.00;-18555.28;5062916;28;20574;-83
2023/06/24 00:31:14;;;;;;;12.45;9.55;;;;;;;19.50;100.00;-18551.47;5071634;28;20129;-83
2023/06/24 00:33:39;;;;;;;12.43;10.35;;;;;;;19.39;100.00;-18548.75;5065349;28;20047;-83
2023/06/24 00:36:06;;;;;;;13.95;10.45;;;;;;;19.27;100.00;-18545.47;5064138;28;20036;-84
2023/06/24 00:38:32;;;;;;;11.95;9.27;;;;;;;19.38;100.00;-18548.34;5065623;28;20104;-83
2023/06/24 00:40:58;;;;;;;15.07;10.30;;;;;;;19.36;100.00;-18547.94;5058636;28;20046;-84
2023/06/24 00:43:24;;;;;;;14.68;10.05;;;;;;;19.29;100.00;-18546.03;5083629;28;20043;-86
2023/06/24 00:45:50;;;;;;;11.48;9.32;;;;;;;19.34;100.00;-18547.25;5064423;28;20053;-85
2023/06/24 00:48:16;;;;;;;14.60;10.35;;;;;;;19.46;100.00;-18550.53;5061455;28;20039;-86
2023/06/24 00:50:45;;;;;;;12.55;10.07;;;;;;;19.41;100.00;-18549.03;5067228;28;20037;-85
2023/06/24 00:53:11;;;;;;;12.18;10.20;;;;;;;19.25;100.00;-18544.94;5062355;28;20522;-84
2023/06/24 00:55:37;;;;;;;17.75;11.05;;;;;;;19.24;100.00;-18544.66;5064369;28;20119;-82
2023/06/24 00:58:02;;;;;;;12.80;10.43;;;;;;;19.30;100.00;-18546.16;5060857;28;20449;-88
2023/06/24 01:00:28;;;;;;;12.38;10.35;;;;;;;19.25;100.00;-18544.78;5067523;28;20052;-86
2023/06/24 01:02:53;;;;;;;13.60;10.93;;;;;;;19.13;100.00;-18541.81;5075219;28;20052;-84
2023/06/24 01:05:23;;;;;;;12.40;9.90;;;;;;;19.22;100.00;-18543.97;5077955;28;20062;-84
2023/06/24 01:07:54;;;;;;;13.85;10.50;;;;;;;19.28;100.00;-18545.63;5069561;28;20054;-86
2023/06/24 01:10:20;;;;;;;13.88;10.48;;;;;;;19.04;100.00;-18539.34;5062188;28;20123;-85
2023/06/24 01:12:45;;;;;;;13.82;10.43;;;;;;;19.17;100.00;-18542.75;5069497;28;20087;-85
2023/06/24 01:15:11;;;;;;;13.80;11.00;;;;;;;19.07;100.00;-18540.03;5061134;28;20051;-86
2023/06/24 01:17:55;;;;;;;14.40;10.68;;;;;;;19.04;100.00;-18539.34;5067339;28;20036;-84
2023/06/24 01:20:29;;;;;;;15.45;11.05;;;;;;;19.02;100.00;-18538.81;5082204;28;20040;-87
2023/06/24 01:22:57;;;;;;;15.32;11.43;;;;;;;19.02;100.00;-18538.81;5063867;28;20040;-86
2023/06/24 01:25:50;;;;;;;13.77;11.33;;;;;;;19.23;100.00;-18544.25;5066067;28;20041;-87
2023/06/24 01:28:41;;;;;;;13.73;11.32;;;;;;;18.87;100.00;-18534.72;5061828;28;20649;-84
2023/06/24 01:31:37;;;;;;;13.93;10.77;;;;;;;18.77;100.00;-18532.00;5064711;28;20037;-88
2023/06/24 01:34:28;;;;;;;15.40;11.32;;;;;;;18.79;100.00;-18532.53;5059730;28;20076;-83
2023/06/24 01:37:04;;;;;;;15.27;11.48;;;;;;;18.70;100.00;-18530.22;5067008;28;20461;-87
2023/06/24 01:39:37;;;;;;;19.17;11.77;;;;;;;18.54;100.00;-18525.84;5061699;28;20044;-83
2023/06/24 01:42:13;;;;;;;16.17;11.18;;;;;;;18.69;100.00;-18530.06;5064671;28;20037;-82
2023/06/24 01:44:41;;;;;;;15.45;11.38;;;;;;;18.76;100.00;-18531.84;5065766;28;20062;-82
2023/06/24 01:47:08;;;;;;;17.20;11.52;;;;;;;18.91;100.00;-18535.94;5060858;28;20041;-85
2023/06/24 01:49:40;;;;;;;16.33;12.45;;;;;;;18.82;100.00;-18533.50;5065927;28;20628;-87
2023/06/24 01:52:10;;;;;;;15.15;12.35;;;;;;;18.88;100.00;-18535.13;5065019;28;20047;-83
2023/06/24 01:54:39;;;;;;;15.45;12.00;;;;;;;19.00;100.00;-18538.25;5063938;28;20059;-85
2023/06/24 01:57:07;;;;;;;14.98;11.68;;;;;;;19.10;100.00;-18540.97;5063550;28;20041;-83
2023/06/24 01:59:40;;;;;;;18.10;12.10;;;;;;;19.10;100.00;-18540.84;5073679;28;20067;-86
2023/06/24 02:02:07;;;;;;;15.98;12.02;;;;;;;19.00;100.00;-18538.13;5054578;28;20033;-85
2023/06/24 02:04:34;;;;;;;18.40;12.35;;;;;;;19.02;100.00;-18538.66;5061140;28;20058;-85
2023/06/24 02:07:01;;;;;;;17.02;12.60;;;;;;;19.14;100.00;-18541.94;5066720;28;20115;-83
2023/06/24 02:09:30;;;;;;;18.75;12.70;;;;;;;19.14;100.00;-18541.94;5086971;28;20040;-86
2023/06/24 02:11:58;;;;;;;15.48;12.20;;;;;;;18.96;100.00;-18537.03;5066932;28;20043;-84
2023/06/24 02:14:27;;;;;;;15.85;12.43;;;;;;;18.97;100.00;-18537.44;5061746;28;20028;-83
2023/06/24 02:16:57;;;;;;;;;;;;;;;19.20;100.00;-18543.44;5062302;28;20051;-85
2023/06/24 02:19:26;;;;;;;17.95;12.73;;;;;;;19.07;100.00;-18540.16;5063008;28;19912;-88
2023/06/24 02:21:51;;;;;;;;;;;;;;;18.84;100.00;-18534.03;5055377;28;20071;-84
2023/06/24 02:24:19;;;;;;;14.60;11.43;;;;;;;18.89;100.00;-18535.25;5064680;28;20296;-85
2023/06/24 02:26:45;;;;;;;17.83;11.55;;;;;;;18.86;100.00;-18534.44;5062782;28;20069;-82
2023/06/24 02:29:13;;;;;;;13.80;10.90;;;;;;;18.97;100.00;-18537.44;5049088;28;20029;-84
2023/06/24 02:31:38;;;;;;;16.95;11.77;;;;;;;19.04;100.00;-18539.34;5057855;28;20032;-84
2023/06/24 02:34:04;;;;;;;15.70;11.75;;;;;;;19.23;100.00;-18544.25;5058202;28;20040;-83
2023/06/24 02:36:29;;;;;;;15.50;11.50;;;;;;;19.45;100.00;-18550.25;5060033;28;20029;-87
2023/06/24 02:38:55;;;;;;;15.02;11.68;;;;;;;19.44;100.00;-18549.84;5063801;28;20124;-84
2023/06/24 02:41:20;;;;;;;14.75;11.20;;;;;;;19.22;100.00;-18543.97;5065986;28;20094;-85
2023/06/24 02:43:45;;;;;;;14.13;10.95;;;;;;;19.26;100.00;-18545.06;5077990;28;20404;-85
2023/06/24 02:46:11;;;;;;;17.77;11.50;;;;;;;19.24;100.00;-18544.53;5060436;28;20052;-84
2023/06/24 02:48:38;;;;;;;16.90;11.45;;;;;;;19.16;100.00;-18542.63;5060724;28;20111;-85
2023/06/24 02:51:06;;;;;;;17.35;11.68;;;;;;;18.99;100.00;-18537.84;5068165;28;20120;-85
2023/06/24 02:53:32;;;;;;;16.10;11.85;;;;;;;19.21;100.00;-18543.72;5067204;28;20086;-86
2023/06/24 02:55:58;;;;;;;17.77;11.90;;;;;;;18.89;100.00;-18535.25;5070484;28;20056;-85
2023/06/24 02:58:27;;;;;;;18.80;11.38;;;;;;;18.93;100.00;-18536.34;5062159;28;20318;-85
2023/06/24 03:00:53;;;;;;;17.52;11.95;;;;;;;18.86;100.00;-18534.44;5067782;28;20036;-87
2023/06/24 03:03:18;;;;;;;16.33;11.63;;;;;;;18.82;100.00;-18533.34;5082020;28;20047;-85
2023/06/24 03:05:48;;;;;;;15.93;11.43;;;;;;;18.78;100.00;-18532.41;5062259;28;20040;-85
2023/06/24 03:08:13;;;;;;;15.80;11.23;;;;;;;18.72;100.00;-18530.75;5064542;28;20045;-85
2023/06/24 03:10:39;;;;;;;16.88;11.95;;;;;;;18.66;100.00;-18529.25;5066735;28;20037;-84
2023/06/24 03:13:04;;;;;;;18.73;12.07;;;;;;;18.67;100.00;-18529.38;5077605;28;20052;-85
2023/06/24 03:15:29;;;;;;;17.02;11.75;;;;;;;18.75;100.00;-18531.44;5063214;28;20041;-84
2023/06/24 03:17:55;;;;;;;19.75;11.80;;;;;;;18.58;100.00;-18527.06;5062323;28;20033;-85
2023/06/24 03:20:21;;;;;;;18.60;12.07;;;;;;;18.64;100.00;-18528.72;5061152;28;20637;-87
2023/06/24 03:22:46;;;;;;;16.23;11.82;;;;;;;18.64;100.00;-18528.72;5065346;28;20098;-84
2023/06/24 03:25:11;;;;;;;16.27;12.13;;;;;;;18.89;100.00;-18535.41;5063455;28;20087;-87
2023/06/24 03:27:37;;;;;;;19.55;13.52;;;;;;;18.70;100.00;-18530.34;5064842;28;20041;-85
2023/06/24 03:30:03;;;;;;;16.77;12.68;;;;;;;18.43;100.00;-18523.13;5055783;28;20151;-85
2023/06/24 03:32:28;;;;;;;17.10;12.13;;;;;;;18.53;100.00;-18525.72;5063485;28;20044;-82
2023/06/24 03:34:53;;;;;;;17.27;12.43;;;;;;;18.41;100.00;-18522.44;5064833;28;20036;-86
2023/06/24 03:37:19;;;;;;;18.67;13.65;;;;;;;18.40;100.00;-18522.16;5071449;28;20047;-85
2023/06/24 03:39:44;;;;;;;17.25;12.32;;;;;;;18.38;100.00;-18521.63;5065724;28;20037;-87
2023/06/24 03:42:10;;;;;;;15.98;12.60;;;;;;;18.47;100.00;-18524.06;5065372;28;20060;-87
2023/06/24 03:44:35;;;;;;;19.63;12.73;;;;;;;18.56;100.00;-18526.53;5065703;28;20044;-84
2023/06/24 03:47:00;;;;;;;20.20;12.15;;;;;;;18.43;100.00;-18522.97;5063870;28;20395;-84
2023/06/24 03:49:26;;;;;;;18.67;12.73;;;;;;;18.40;100.00;-18522.16;5057834;28;20488;-88
2023/06/24 03:51:51;;;;;;;19.17;12.60;;;;;;;18.67;100.00;-18529.53;5070051;28;20066;-86
2023/06/24 03:54:17;;;;;;;21.88;13.50;;;;;;;18.41;100.00;-18522.56;5068279;28;20040;-85
2023/06/24 03:56:42;;;;;;;20.77;13.13;;;;;;;18.48;100.00;-18524.47;5064886;28;20036;-86
2023/06/24 03:59:08;;;;;;;23.25;13.02;;;;;;;18.35;100.00;-18520.94;5065252;28;20044;-85
2023/06/24 04:01:33;;;;;;;20.63;12.95;;;;;;;18.52;100.00;-18525.44;5068797;28;20036;-85
2023/06/24 04:03:58;;;;;;;20.35;13.73;;;;;;;18.53;100.00;-18525.56;5059622;28;20041;-86
2023/06/24 04:06:24;;;;;;;20.15;13.10;;;;;;;18.58;100.00;-18527.06;5062030;28;20321;-84
2023/06/24 04:08:51;;;;;;;22.17;13.88;;;;;;;18.65;100.00;-18528.84;5059781;28;20036;-84
2023/06/24 04:11:17;;;;;;;23.23;14.07;;;;;;;18.48;100.00;-18524.34;5069965;28;20037;-85
2023/06/24 04:13:42;;;;;;;23.25;14.07;;;;;;;18.57;100.00;-18526.81;5063128;28;20044;-85
2023/06/24 04:16:08;;;;;;;19.17;13.32;;;;;;;18.59;100.00;-18527.34;5061346;28;20040;-85
2023/06/24 04:18:34;;;;;;;24.25;14.80;;;;;;;18.61;100.00;-18527.88;5061710;28;20380;-87
2023/06/24 04:20:59;;;;;;;18.92;14.25;;;;;;;18.72;100.00;-18530.88;5060826;28;20468;-85
2023/06/24 04:23:24;;;;;;;22.23;13.85;;;;;;;18.84;100.00;-18534.03;5065497;28;20040;-84
2023/06/24 04:25:50;;;;;;;21.27;14.20;;;;;;;18.81;100.00;-18533.22;5065683;28;20032;-85
2023/06/24 04:28:15;;;;;;;19.98;14.07;;;;;;;18.81;100.00;-18533.06;5059917;28;20329;-83
2023/06/24 04:30:40;;;;;;;20.02;14.38;;;;;;;18.97;100.00;-18537.31;5064299;28;20543;-85
2023/06/24 04:33:06;;;;;;;23.55;14.07;;;;;;;19.10;100.00;-18540.84;5064759;28;20062;-87
2023/06/24 04:35:31;;;;;;;20.55;14.85;;;;;;;19.19;100.00;-18543.16;5062701;28;20060;-85
2023/06/24 04:37:56;;;;;;;18.58;13.80;;;;;;;19.37;100.00;-18548.06;5065857;28;20049;-85
2023/06/24 04:40:22;;;;;;;20.23;14.52;;;;;;;19.24;100.00;-18544.53;5076138;28;20044;-85
2023/06/24 04:42:47;;;;;;;20.13;15.02;;;;;;;19.45;100.00;-18550.25;5064989;28;20049;-84
2023/06/24 04:45:13;;;;;;;21.25;15.35;;;;;;;19.22;100.00;-18543.97;5068370;28;20353;-85
2023/06/24 04:47:38;;;;;;;22.25;15.57;;;;;;;19.35;100.00;-18547.66;5068302;28;20029;-83
2023/06/24 04:50:04;;;;;;;19.65;16.13;;;;;;;19.51;100.00;-18551.75;5047028;28;20116;-84
2023/06/24 04:52:30;;;;;;;20.10;15.27;;;;;;;19.61;100.00;-18554.47;5045106;28;20053;-87
2023/06/24 04:54:55;;;;;;;21.77;14.95;;;;;;;19.88;100.00;-18561.69;5049740;28;20036;-85
2023/06/24 04:57:29;;;;;;;20.67;14.95;;;;;;;20.02;100.00;-18565.50;5048542;28;20041;-85
2023/06/24 04:59:54;;;;;;;21.38;15.85;;;;;;;20.00;100.00;-18564.97;5046809;28;21599;-83
2023/06/24 05:02:20;;;;;;;22.00;15.80;;;;;;;20.03;100.00;-18565.78;5043993;28;20045;-85
2023/06/24 05:04:45;;;;;;;20.48;15.40;;;;;;;20.02;100.00;-18565.38;5048635;28;20487;-87
2023/06/24 05:07:11;;;;;;;20.88;15.95;;;;;;;20.29;100.00;-18572.59;5039385;28;20099;-83
2023/06/24 05:09:37;;;;;;;20.30;15.60;;;;;;;20.34;100.00;-18573.94;5046424;28;20045;-84
2023/06/24 05:12:07;;;;;;;20.10;15.38;;;;;;;20.66;100.00;-18582.53;5044389;28;20033;-83
2023/06/24 05:14:36;;;;;;;18.02;14.00;;;;;;;20.78;100.00;-18585.66;5044149;28;20500;-84
2023/06/24 05:17:02;;;;;;;;;;;;;;;20.76;100.00;-18585.09;5040175;28;20045;-84
2023/06/24 05:19:27;;;;;;;20.05;13.65;;;;;;;20.50;100.00;-18578.28;5036479;28;20525;-85
2023/06/24 05:21:52;;;;;;;16.92;13.63;;;;;;;20.74;100.00;-18584.56;5042936;28;20044;-88
2023/06/24 05:24:18;;;;;;;17.13;13.15;;;;;;;20.85;100.00;-18587.41;5062824;28;20035;-88
2023/06/24 05:26:45;;;;;;;17.92;13.52;;;;;;;20.69;100.00;-18583.34;5061856;28;20059;-85
2023/06/24 05:29:11;;;;;;;17.50;12.20;;;;;;;20.98;100.00;-18590.94;5062318;28;20126;-88
2023/06/24 05:31:37;;;;;;;17.48;12.43;;;;;;;21.04;100.00;-18592.59;5060908;28;20033;-86
2023/06/24 05:34:02;;;;;;;18.65;13.30;;;;;;;21.28;100.00;-18598.97;5063985;28;20037;-88
2023/06/24 05:36:27;;;;;;;19.20;13.13;;;;;;;21.17;100.00;-18596.13;5067459;28;20036;-87
2023/06/24 05:38:53;;;;;;;17.83;13.68;;;;;;;21.33;100.00;-18600.19;5062813;28;20102;-86
2023/06/24 05:41:18;;;;;;;18.85;14.32;;;;;;;21.70;100.00;-18610.13;5068321;28;20419;-84
2023/06/24 05:43:44;;;;;;;17.45;12.90;;;;;;;21.77;100.00;-18611.88;5066353;28;20111;-84
2023/06/24 05:46:09;;;;;;;15.20;12.50;;;;;;;21.87;100.00;-18614.59;5068126;28;20119;-83
2023/06/24 05:48:34;;;;;;;15.98;12.93;;;;;;;21.71;100.00;-18610.41;5069595;28;20075;-86
2023/06/24 05:51:00;;;;;;;19.77;13.18;;;;;;;21.67;100.00;-18609.19;5066531;28;20047;-85
2023/06/24 05:53:25;;;;;;;18.95;13.75;;;;;;;21.91;100.00;-18615.69;5067384;28;20052;-83
2023/06/24 05:55:50;;;;;;;22.30;13.00;;;;;;;22.14;100.00;-18621.81;5064412;28;20052;-83
2023/06/24 05:58:16;;;;;;;19.45;14.40;;;;;;;22.02;100.00;-18618.53;5069005;28;20104;-83
2023/06/24 06:00:41;;;;;;;19.92;12.85;;;;;;;21.97;100.00;-18617.31;5067325;28;20032;-86
2023/06/24 06:03:06;;;;;;;20.17;14.13;;;;;;;22.14;100.00;-18621.81;5063939;28;20048;-84
2023/06/24 06:05:32;;;;;;;19.15;13.20;;;;;;;22.40;100.00;-18628.59;5060498;28;20040;-84
2023/06/24 06:07:57;;;;;;;16.80;12.57;;;;;;;22.36;100.00;-18627.53;5063198;28;20066;-86
2023/06/24 06:10:22;;;;;;;17.50;12.98;;;;;;;22.08;100.00;-18620.19;5064435;28;20040;-87
2023/06/24 06:12:48;;;;;;;20.40;13.88;;;;;;;22.29;100.00;-18625.88;5070674;28;20044;-86
2023/06/24 06:15:13;;;;;;;17.58;13.77;;;;;;;22.39;100.00;-18628.34;5070027;28;20503;-85
2023/06/24 06:17:39;;;;;;;19.92;13.77;;;;;;;22.29;100.00;-18625.75;5066772;28;20036;-82
2023/06/24 06:20:05;;;;;;;17.55;12.82;;;;;;;22.33;100.00;-18626.69;5051633;28;20066;-84
2023/06/24 06:22:32;;;;;;;18.67;13.25;;;;;;;22.36;100.00;-18627.53;5060502;28;20041;-87
2023/06/24 06:24:57;;;;;;;18.20;14.40;;;;;;;22.53;100.00;-18632.28;5068878;28;20562;-83
2023/06/24 06:27:22;;;;;;;18.40;14.20;;;;;;;22.39;100.00;-18628.47;5068774;28;20029;-84
2023/06/24 06:29:48;;;;;;;20.10;14.38;;;;;;;22.72;100.00;-18637.28;5067654;28;20621;-87
2023/06/24 06:32:16;;;;;;;20.83;14.55;;;;;;;22.83;100.00;-18640.13;5068461;28;20036;-87
2023/06/24 06:34:42;;;;;;;19.77;13.73;;;;;;;22.96;100.00;-18643.53;5060677;28;20525;-86
2023/06/24 06:37:07;;;;;;;18.30;14.57;;;;;;;23.14;100.00;-18648.41;5062149;28;20765;-85
2023/06/24 06:39:32;;;;;;;19.98;14.05;;;;;;;23.17;100.00;-18649.25;5065262;28;20041;-87
2023/06/24 06:41:58;;;;;;;17.85;13.23;;;;;;;22.83;100.00;-18640.00;5069130;28;20041;-84
2023/06/24 06:44:23;;;;;;;21.75;14.95;;;;;;;22.90;100.00;-18641.91;5071051;28;20048;-84
2023/06/24 06:46:49;;;;;;;22.05;15.68;;;;;;;23.31;100.00;-18652.91;5066371;28;20095;-86
2023/06/24 06:49:14;;;;;;;20.20;14.45;;;;;;;23.20;100.00;-18649.91;5063931;28;20036;-84
2023/06/24 06:51:39;;;;;;;19.30;14.88;;;;;;;23.25;100.00;-18651.28;5068989;28;20724;-85
2023/06/24 06:54:05;;;;;;;19.90;13.88;;;;;;;23.33;100.00;-18653.31;5066513;28;20048;-85
2023/06/24 06:56:30;;;;;;;20.42;14.88;;;;;;;23.31;100.00;-18652.75;5065545;28;20044;-84
2023/06/24 06:58:55;;;;;;;19.13;14.93;;;;;;;23.19;100.00;-18649.78;5069418;28;20032;-87
2023/06/24 07:01:20;;;;;;;21.30;13.93;;;;;;;23.41;100.00;-18655.47;5062547;28;20095;-87
2023/06/24 07:03:46;;;;;;;18.83;13.80;;;;;;;23.68;100.00;-18662.53;5063455;28;20059;-86
2023/06/24 07:06:11;;;;;;;21.55;13.55;;;;;;;23.74;100.00;-18664.16;5061859;28;20040;-84
2023/06/24 07:08:37;;;;;;;22.10;14.85;;;;;;;23.63;100.00;-18661.44;5082413;28;20131;-84
2023/06/24 07:11:03;;;;;;;21.80;15.07;;;;;;;23.64;100.00;-18661.72;5068029;28;20042;-86
2023/06/24 07:13:28;;;;;;;21.50;15.82;;;;;;;23.67;100.00;-18662.38;5067297;28;20502;-86
2023/06/24 07:15:53;;;;;;;24.15;15.63;;;;;;;23.86;100.00;-18667.41;5064128;28;20040;-87
2023/06/24 07:18:19;;;;;;;22.15;16.77;;;;;;;23.97;100.00;-18670.41;5066618;28;20527;-83
2023/06/24 07:20:44;;;;;;;25.05;15.70;;;;;;;23.83;100.00;-18666.59;5058667;28;20024;-86
2023/06/24 07:23:10;;;;;;;19.88;14.57;;;;;;;23.77;100.00;-18665.09;5068331;28;20102;-86
2023/06/24 07:25:36;;;;;;;20.15;14.90;;;;;;;23.96;100.00;-18670.13;5068002;28;20450;-86
2023/06/24 07:28:01;;;;;;;22.10;15.60;;;;;;;24.10;100.00;-18673.78;5064288;28;20032;-86
2023/06/24 07:30:27;;;;;;;22.70;15.40;;;;;;;24.09;100.00;-18673.50;5069041;28;20032;-86
2023/06/24 07:32:52;;;;;;;22.25;15.32;;;;;;;24.17;100.00;-18675.69;5068475;28;20033;-85
2023/06/24 07:35:18;;;;;;;23.60;15.65;;;;;;;24.42;100.00;-18682.31;5067421;28;20048;-85
2023/06/24 07:37:44;;;;;;;20.80;15.52;;;;;;;24.51;100.00;-18684.63;5072777;28;20040;-84
2023/06/24 07:40:10;;;;;;;21.45;15.23;;;;;;;24.92;100.00;-18695.59;5044338;28;20045;-84
2023/06/24 07:42:35;;;;;;;21.13;14.98;;;;;;;24.82;100.00;-18692.88;5044193;28;20051;-86
2023/06/24 07:45:00;;;;;;;21.80;14.30;;;;;;;24.98;100.00;-18697.22;5034873;28;20060;-88
2023/06/24 07:47:26;;;;;;;19.23;14.45;;;;;;;25.03;100.00;-18698.31;5042896;28;20456;-85
2023/06/24 07:49:52;;;;;;;23.40;14.00;;;;;;;25.06;100.00;-18699.13;5032755;28;20063;-86
2023/06/24 07:52:17;;;;;;;22.15;14.95;;;;;;;25.23;100.00;-18703.59;5041594;28;20048;-86
2023/06/24 07:54:43;;;;;;;20.05;13.55;;;;;;;25.30;100.00;-18705.47;5049175;28;20045;-85
2023/06/24 07:57:08;;;;;;;20.77;15.23;;;;;;;25.41;100.00;-18708.47;5044556;28;20033;-84
2023/06/24 07:59:34;;;;;;;18.50;14.27;;;;;;;25.39;100.00;-18708.06;5040373;28;20779;-85
2023/06/24 08:01:59;;;;;;;22.13;13.77;;;;;;;25.49;100.00;-18710.50;5044613;28;20048;-86
2023/06/24 08:04:24;;;;;;;20.40;15.43;;;;;;;25.01;100.00;-18697.75;5034608;28;20570;-85
2023/06/24 08:06:52;;;;;;;19.10;13.70;;;;;;;25.01;100.00;-18697.75;5064501;28;20032;-84
2023/06/24 08:09:18;;;;;;;22.97;15.70;;;;;;;25.10;100.00;-18700.34;5062740;28;20131;-85
2023/06/24 08:11:44;;;;;;;24.02;15.52;;;;;;;25.20;100.00;-18702.91;5075814;28;20135;-84
2023/06/24 08:14:09;;;;;;;21.23;15.68;;;;;;;25.03;100.00;-18698.31;5055474;28;20048;-85
2023/06/24 08:16:34;;;;;;;22.27;14.93;;;;;;;25.16;100.00;-18701.81;5061373;28;20131;-85
2023/06/24 08:19:00;;;;;;;22.10;16.20;;;;;;;25.40;100.00;-18708.31;5069634;28;20093;-86
2023/06/24 08:21:25;;;;;;;22.08;14.77;;;;;;;25.31;100.00;-18705.88;5070736;28;20839;-84
2023/06/24 08:23:53;;;;;;;23.60;17.63;;;;;;;25.40;98.74;-18708.31;5057055;28;20115;-86
2023/06/24 08:26:22;;;;;;;21.95;14.98;;;;;;;25.44;99.96;-18709.41;5070604;28;20646;-84
2023/06/24 08:28:48;;;;;;;20.50;16.05;;;;;;;25.62;98.00;-18714.13;5067018;27;20116;-87
2023/06/24 08:31:13;;;;;;;23.95;16.50;;;;;;;25.61;95.76;-18713.88;5070170;28;20142;-85
2023/06/24 08:33:39;;;;;;;19.50;14.13;;;;;;;25.70;93.66;-18716.16;5059109;28;20075;-85
2023/06/24 08:36:04;;;;;;;18.90;14.00;;;;;;;25.84;91.20;-18719.97;5065709;28;20530;-88
2023/06/24 08:38:29;;;;;;;19.88;14.05;;;;;;;25.88;92.92;-18720.91;5066538;28;20491;-85
2023/06/24 08:40:55;;;;;;;19.38;13.00;;;;;;;25.93;90.12;-18722.13;5071462;28;20033;-86
2023/06/24 08:43:21;;;;;;;19.08;13.75;;;;;;;25.72;88.28;-18716.56;5069888;28;20090;-86
2023/06/24 08:45:46;;;;;;;20.00;12.90;;;;;;;25.79;90.42;-18718.47;5076478;28;20044;-87
2023/06/24 08:48:13;;;;;;;19.73;14.23;;;;;;;25.74;90.12;-18717.25;5074095;28;20114;-87
2023/06/24 08:50:49;;;;;;;18.90;12.90;;;;;;;25.98;86.70;-18723.63;5069079;28;20090;-85
2023/06/24 08:53:14;;;;;;;18.20;13.93;;;;;;;26.03;92.63;-18724.84;5054891;28;20068;-84
2023/06/24 08:55:43;;;;;;;18.77;13.45;;;;;;;26.21;91.10;-18729.56;5053837;28;20036;-85
2023/06/24 08:58:09;;;;;;;20.00;12.80;;;;;;;26.34;89.64;-18733.06;5062818;28;20423;-86
2023/06/24 09:00:34;;;;;;;16.67;11.52;;;;;;;26.34;84.71;-18733.22;5074986;28;20043;-86
2023/06/24 09:03:06;;;;;;;19.38;12.45;;;;;;;26.30;91.44;-18732.00;5058724;28;20095;-85
2023/06/24 09:05:31;;;;;;;19.20;11.57;;;;;;;26.18;83.11;-18728.88;5053075;28;20487;-86
2023/06/24 09:07:56;;;;;;;16.60;11.80;;;;;;;26.20;86.17;-18729.44;5048776;28;20045;-86
2023/06/24 09:10:37;;;;;;;16.75;11.40;;;;;;;26.28;84.43;-18731.59;5042649;28;20045;-86
2023/06/24 09:13:05;;;;;;;17.60;11.30;;;;;;;26.41;87.03;-18734.84;5051183;28;20083;-85
2023/06/24 09:15:35;;;;;;;13.90;9.45;;;;;;;26.47;81.27;-18736.44;5056038;28;20131;-86
2023/06/24 09:18:03;;;;;;;14.15;8.60;;;;;;;26.51;74.65;-18737.53;5036913;28;20049;-87
2023/06/24 09:20:30;;;;;;;13.95;10.05;;;;;;;26.38;72.58;-18734.03;5028963;28;20044;-85
2023/06/24 09:23:03;;;;;;;15.05;10.10;;;;;;;26.52;75.21;-18737.94;5036913;28;20645;-86
2023/06/24 09:25:30;;;;;;;15.38;10.73;;;;;;;26.61;78.20;-18740.25;5034949;28;20044;-84
2023/06/24 09:27:59;;;;;;;13.05;8.25;;;;;;;26.61;73.51;-18740.25;5055268;28;20037;-85
2023/06/24 09:30:25;;;;;;;12.00;7.82;;;;;;;26.84;71.59;-18746.19;5051851;28;20052;-83
2023/06/24 09:32:54;;;;;;;13.02;9.05;;;;;;;26.93;65.63;-18748.63;5045851;28;20156;-88
2023/06/24 09:35:21;;;;;;;;;;;;;;;27.06;71.89;-18752.13;5053011;28;20512;-84
2023/06/24 09:37:56;;;;;;;15.32;10.02;;;;;;;26.86;72.01;-18746.72;5067436;28;20379;-83
2023/06/24 09:40:23;;;;;;;13.32;9.48;;;;;;;27.04;72.67;-18751.47;5087938;28;20044;-87
2023/06/24 09:43:00;;;;;;;15.02;8.25;;;;;;;27.17;67.21;-18755.09;5067659;28;20052;-87
2023/06/24 09:45:29;;;;;;;10.90;6.35;;;;;;;27.25;63.21;-18757.00;5051466;28;20037;-82
2023/06/24 09:47:56;;;;;;;11.35;7.30;;;;;;;27.06;60.52;-18752.13;5042730;28;20045;-87
2023/06/24 09:50:22;;;;;;;8.85;6.18;;;;;;;26.88;63.76;-18747.41;5047217;28;20734;-84
2023/06/24 09:52:49;;;;;;;10.38;7.35;;;;;;;26.96;62.91;-18749.56;5070316;28;20037;-86
2023/06/24 09:55:16;;;;;;;10.52;7.22;;;;;;;27.08;60.77;-18752.53;5072639;28;20033;-84
2023/06/24 09:57:49;;;;;;;10.30;7.00;;;;;;;27.13;60.47;-18754.03;5065512;28;20041;-86
2023/06/24 10:00:17;;;;;;;10.23;6.65;;;;;;;27.06;56.99;-18752.13;5056501;28;20060;-88
2023/06/24 10:02:44;;;;;;;12.43;7.40;;;;;;;27.16;60.41;-18754.69;5070465;28;20037;-88
2023/06/24 10:05:10;;;;;;;11.93;7.38;;;;;;;27.27;57.20;-18757.53;5071015;28;20267;-84
2023/06/24 10:07:37;;;;;;;11.45;7.93;;;;;;;27.24;57.94;-18756.88;5066094;28;20079;-83
2023/06/24 10:10:03;;;;;;;10.23;7.07;;;;;;;27.39;59.70;-18760.78;5066360;28;20679;-86
2023/06/24 10:12:29;;;;;;;11.80;7.43;;;;;;;27.55;57.04;-18765.09;5070013;28;20044;-88
2023/06/24 10:14:55;;;;;;;15.55;9.27;;;;;;;27.66;58.62;-18767.94;5013406;28;20046;-82
2023/06/24 10:17:20;;;;;;;13.60;8.27;;;;;;;27.77;57.43;-18770.78;5020234;28;20049;-83
2023/06/24 10:19:51;;;;;;;16.73;9.30;;;;;;;27.76;58.00;-18770.50;5046780;28;20488;-84
2023/06/24 10:22:16;;;;;;;11.57;7.30;;;;;;;27.83;58.85;-18772.53;5052001;28;20036;-83
2023/06/24 10:24:44;;;;;;;11.35;6.22;;;;;;;28.19;51.37;-18781.84;5043988;28;20093;-83
2023/06/24 10:27:21;;;;;;;6.97;5.50;;;;;;;28.28;51.77;-18784.25;5009697;28;20046;-84
2023/06/24 10:29:52;;;;;;;10.25;6.00;;;;;;;28.12;49.06;-18780.22;5004317;28;20101;-83
2023/06/24 10:32:18;;;;;;;9.75;6.30;;;;;;;28.13;50.00;-18780.34;5033230;28;20404;-84
2023/06/24 10:34:45;;;;;;;8.43;5.75;;;;;;;28.16;50.70;-18781.03;5014759;28;20041;-85
2023/06/24 10:37:19;;;;;;;7.00;5.35;;;;;;;28.19;51.04;-18781.84;5031732;28;20048;-83
2023/06/24 10:39:48;;;;;;;6.05;3.60;;;;;;;28.16;46.24;-18781.03;5021909;28;20070;-86
2023/06/24 10:42:28;;;;;;;6.57;4.30;;;;;;;28.34;46.02;-18785.88;5023584;28;20050;-84
2023/06/24 10:44:58;;;;;;;5.70;3.90;;;;;;;28.42;42.70;-18788.03;5015400;28;20478;-84
2023/06/24 10:47:27;;;;;;;4.10;2.85;;;;;;;28.32;42.53;-18785.47;5042218;28;20726;-85
2023/06/24 10:49:55;;;;;;;7.28;3.60;;;;;;;28.50;43.31;-18790.19;5074066;28;20044;-82
2023/06/24 10:52:21;;;;;;;8.52;3.20;;;;;;;28.37;41.89;-18786.69;5080632;28;20394;-84
2023/06/24 10:54:47;;;;;;;7.90;4.25;;;;;;;28.39;42.59;-18787.22;5077991;28;20059;-85
2023/06/24 10:57:12;;;;;;;6.97;4.10;;;;;;;28.40;42.04;-18787.50;5079246;28;20423;-86
2023/06/24 10:59:42;;;;;;;7.05;4.60;;;;;;;28.49;41.67;-18789.94;5074538;28;20036;-84
2023/06/24 11:02:09;;;;;;;5.38;3.25;;;;;;;28.39;41.41;-18787.22;5074529;28;20098;-85
2023/06/24 11:04:48;;;;;;;5.25;3.45;;;;;;;28.76;41.43;-18796.94;5078249;28;20048;-82
2023/06/24 11:07:16;;;;;;;4.90;3.50;;;;;;;28.75;41.04;-18796.66;5078996;28;20048;-83